createdAt,value
2022-10-11T00:01:20.023Z,70.80
2022-10-11T00:03:46.602Z,69.56
2022-10-11T00:06:13.165Z,70.88
2022-10-11T00:08:39.656Z,70.40
2022-10-11T00:11:07.142Z,70.45
2022-10-11T00:13:34.131Z,70.71
2022-10-11T00:16:01.230Z,70.67
2022-10-11T00:18:28.123Z,70.57
2022-10-11T00:21:05.810Z,70.69
2022-10-11T00:23:33.339Z,70.13
2022-10-11T00:26:02.158Z,69.85
2022-10-11T00:28:29.110Z,70.29
2022-10-11T00:30:55.723Z,70.04
2022-10-11T00:33:22.275Z,69.69
2022-10-11T00:35:49.235Z,69.31
2022-10-11T00:38:16.344Z,69.55
2022-10-11T00:40:43.249Z,70.08
2022-10-11T00:43:31.076Z,70.71
2022-10-11T00:45:57.552Z,70.90
2022-10-11T00:48:38.240Z,69.70
2022-10-11T00:51:10.381Z,70.79
2022-10-11T00:53:47.885Z,70.76
2022-10-11T00:56:20.763Z,70.38
2022-10-11T00:58:47.948Z,70.75
2022-10-11T01:01:14.579Z,70.83
2022-10-11T01:03:41.958Z,70.45
2022-10-11T01:06:09.195Z,69.58
2022-10-11T01:08:36.645Z,70.44
2022-10-11T01:11:03.499Z,70.29
2022-10-11T01:13:41.181Z,70.88
2022-10-11T01:16:26.306Z,70.82
2022-10-11T01:19:20.766Z,70.33
2022-10-11T01:21:57.568Z,70.43
2022-10-11T01:25:04.383Z,70.96
2022-10-11T01:27:36.890Z,71.24
2022-10-11T01:30:21.354Z,70.51
2022-10-11T01:32:57.612Z,71.02
2022-10-11T01:35:35.547Z,70.60
2022-10-11T01:38:13.944Z,70.56
2022-10-11T01:40:54.197Z,70.87
2022-10-11T01:43:23.833Z,71.12
2022-10-11T01:45:52.532Z,70.61
2022-10-11T01:48:19.351Z,71.12
2022-10-11T01:50:51.252Z,70.88
2022-10-11T01:53:29.823Z,70.93
2022-10-11T01:56:11.414Z,70.41
2022-10-11T01:59:03.029Z,70.19
2022-10-11T02:01:51.342Z,70.37
2022-10-11T02:04:26.185Z,70.61
2022-10-11T02:06:58.497Z,70.07
2022-10-11T02:09:43.603Z,70.49
2022-10-11T02:12:13.124Z,69.97
2022-10-11T02:14:44.383Z,70.30
2022-10-11T02:17:15.727Z,70.37
2022-10-11T02:19:47.436Z,70.22
2022-10-11T02:22:32.932Z,70.05
2022-10-11T02:25:04.876Z,69.83
2022-10-11T02:27:34.328Z,70.54
2022-10-11T02:30:03.327Z,69.93
2022-10-11T02:32:32.287Z,70.01
2022-10-11T02:35:01.453Z,70.51
2022-10-11T02:37:36.489Z,69.99
2022-10-11T02:40:27.570Z,69.97
2022-10-11T02:43:03.455Z,70.69
2022-10-11T02:45:41.962Z,70.22
2022-10-11T02:48:11.036Z,70.40
2022-10-11T02:50:39.820Z,70.38
2022-10-11T02:53:07.012Z,70.35
2022-10-11T02:55:33.544Z,69.75
2022-10-11T02:58:00.131Z,69.94
2022-10-11T03:00:26.716Z,70.21
2022-10-11T03:02:53.187Z,69.71
2022-10-11T03:05:20.027Z,69.96
2022-10-11T03:07:46.518Z,69.74
2022-10-11T03:10:13.095Z,70.36
2022-10-11T03:12:39.569Z,70.13
2022-10-11T03:15:06.536Z,69.82
2022-10-11T03:17:37.271Z,70.18
2022-10-11T03:20:06.146Z,69.88
2022-10-11T03:22:32.880Z,69.89
2022-10-11T03:25:03.560Z,69.71
2022-10-11T03:27:31.275Z,69.71
2022-10-11T03:29:57.930Z,69.71
2022-10-11T03:32:24.588Z,69.53
2022-10-11T03:34:51.101Z,69.81
2022-10-11T03:37:18.215Z,70.00
2022-10-11T03:39:45.758Z,68.93
2022-10-11T03:42:13.241Z,68.75
2022-10-11T03:44:39.893Z,69.36
2022-10-11T03:47:06.434Z,69.01
2022-10-11T03:49:32.925Z,69.23
2022-10-11T03:51:59.463Z,69.40
2022-10-11T03:54:26.372Z,69.29
2022-10-11T03:56:53.091Z,69.35
2022-10-11T03:59:19.602Z,69.52
2022-10-11T04:01:46.146Z,69.65
2022-10-11T04:04:12.741Z,69.86
2022-10-11T04:06:39.216Z,69.45
2022-10-11T04:09:05.717Z,69.37
2022-10-11T04:11:32.712Z,69.38
2022-10-11T04:13:59.408Z,69.35
2022-10-11T04:16:25.948Z,69.05
2022-10-11T04:18:52.514Z,69.01
2022-10-11T04:21:19.005Z,69.65
2022-10-11T04:23:45.497Z,68.57
2022-10-11T04:26:12.151Z,69.64
2022-10-11T04:28:38.770Z,69.50
2022-10-11T04:31:06.612Z,69.27
2022-10-11T04:33:33.293Z,69.33
2022-10-11T04:35:59.854Z,68.90
2022-10-11T04:38:26.391Z,69.70
2022-10-11T04:40:52.918Z,69.91
2022-10-11T04:43:19.574Z,69.49
2022-10-11T04:45:46.224Z,69.49
2022-10-11T04:48:13.975Z,69.57
2022-10-11T04:50:40.654Z,69.71
2022-10-11T04:53:07.499Z,69.59
2022-10-11T04:55:33.961Z,70.08
2022-10-11T04:58:02.098Z,69.49
2022-10-11T05:00:29.186Z,68.76
2022-10-11T05:02:55.967Z,69.46
2022-10-11T05:05:22.436Z,69.22
2022-10-11T05:07:48.934Z,69.46
2022-10-11T05:10:15.616Z,69.73
2022-10-11T05:12:42.164Z,69.18
2022-10-11T05:15:09.284Z,69.52
2022-10-11T05:17:36.296Z,68.97
2022-10-11T05:20:03.379Z,68.64
2022-10-11T05:22:29.965Z,69.59
2022-10-11T05:24:56.856Z,68.54
2022-10-11T05:27:23.363Z,68.45
2022-10-11T05:29:50.010Z,69.12
2022-10-11T05:32:16.518Z,68.00
2022-10-11T05:34:43.048Z,67.94
2022-10-11T05:37:09.629Z,67.58
2022-10-11T05:39:36.139Z,67.66
2022-10-11T05:42:05.522Z,68.53
2022-10-11T05:44:35.591Z,67.62
2022-10-11T05:47:02.085Z,67.05
2022-10-11T05:49:28.799Z,66.34
2022-10-11T05:51:55.429Z,66.77
2022-10-11T05:54:22.438Z,66.21
2022-10-11T05:56:48.949Z,65.95
2022-10-11T05:59:15.571Z,65.80
2022-10-11T06:01:42.178Z,66.14
2022-10-11T06:04:09.119Z,65.59
2022-10-11T06:06:35.600Z,65.81
2022-10-11T06:09:02.239Z,65.39
2022-10-11T06:11:28.990Z,65.28
2022-10-11T06:13:58.102Z,65.35
2022-10-11T06:16:25.844Z,64.71
2022-10-11T06:18:57.080Z,65.65
2022-10-11T06:21:24.438Z,65.34
2022-10-11T06:23:58.314Z,64.44
2022-10-11T06:26:26.644Z,64.33
2022-10-11T06:28:53.328Z,64.42
2022-10-11T06:31:19.871Z,64.50
2022-10-11T06:33:46.416Z,64.36
2022-10-11T06:36:14.988Z,64.15
2022-10-11T06:38:44.977Z,63.53
2022-10-11T06:41:16.074Z,63.90
2022-10-11T06:43:42.754Z,63.41
2022-10-11T06:46:09.863Z,63.60
2022-10-11T06:48:40.411Z,62.34
2022-10-11T06:51:06.943Z,62.55
2022-10-11T06:53:33.506Z,62.48
2022-10-11T06:56:05.248Z,61.94
2022-10-11T06:58:32.182Z,62.38
2022-10-11T07:01:07.233Z,62.51
2022-10-11T07:03:34.515Z,61.42
2022-10-11T07:06:03.129Z,60.71
2022-10-11T07:08:30.347Z,61.03
2022-10-11T07:11:11.603Z,60.65
2022-10-11T07:13:39.349Z,61.15
2022-10-11T07:16:11.884Z,60.14
2022-10-11T07:18:39.299Z,59.99
2022-10-11T07:21:08.882Z,60.01
2022-10-11T07:23:35.507Z,59.77
2022-10-11T07:26:03.042Z,59.37
2022-10-11T07:28:30.671Z,58.30
2022-10-11T07:30:58.014Z,59.03
2022-10-11T07:33:24.963Z,57.74
2022-10-11T07:35:51.457Z,57.54
2022-10-11T07:38:18.140Z,57.42
2022-10-11T07:40:46.265Z,56.26
2022-10-11T07:43:13.958Z,56.20
2022-10-11T07:45:42.788Z,55.99
2022-10-11T07:48:09.361Z,56.27
2022-10-11T07:50:36.055Z,55.33
2022-10-11T07:53:03.074Z,55.62
2022-10-11T07:55:31.335Z,54.66
2022-10-11T07:57:58.131Z,54.78
2022-10-11T08:00:24.705Z,54.46
2022-10-11T08:02:51.195Z,54.69
2022-10-11T08:05:17.904Z,54.04
2022-10-11T08:07:44.515Z,53.52
2022-10-11T08:10:11.272Z,53.03
2022-10-11T08:12:37.900Z,53.93
2022-10-11T08:15:05.363Z,53.63
2022-10-11T08:17:31.979Z,53.15
2022-10-11T08:19:58.613Z,52.24
2022-10-11T08:22:27.995Z,51.64
2022-10-11T08:24:54.503Z,51.03
2022-10-11T08:27:20.990Z,49.55
2022-10-11T08:29:47.524Z,49.69
2022-10-11T08:32:14.098Z,49.21
2022-10-11T08:34:40.585Z,48.62
2022-10-11T08:37:07.168Z,47.92
2022-10-11T08:39:34.871Z,47.57
2022-10-11T08:42:04.551Z,47.04
2022-10-11T08:47:33.808Z,46.87
2022-10-11T08:50:01.072Z,46.47
2022-10-11T08:52:35.290Z,46.52
2022-10-11T08:55:08.186Z,46.19
2022-10-11T08:57:38.507Z,45.78
2022-10-11T09:00:08.859Z,45.89
2022-10-11T09:03:07.647Z,46.01
2022-10-11T09:05:49.381Z,44.07
2022-10-11T09:08:37.318Z,44.20
2022-10-11T09:11:25.301Z,45.47
2022-10-11T09:14:13.104Z,45.98
2022-10-11T09:16:58.343Z,46.45
2022-10-11T09:20:12.199Z,45.61
2022-10-11T09:22:44.801Z,46.01
2022-10-11T09:25:33.175Z,44.48
2022-10-11T09:28:36.488Z,44.88
2022-10-11T09:31:03.338Z,44.36
2022-10-11T09:33:46.892Z,43.84
2022-10-11T09:36:16.459Z,42.84
2022-10-11T09:39:06.331Z,43.25
2022-10-11T09:41:45.671Z,42.66
2022-10-11T09:44:22.968Z,42.70
2022-10-11T09:46:50.935Z,40.71
2022-10-11T09:49:21.774Z,39.32
2022-10-11T09:51:56.673Z,39.66
2022-10-11T09:54:44.890Z,40.18
2022-10-11T09:57:22.125Z,38.17
2022-10-11T10:00:20.831Z,38.22
2022-10-11T10:02:48.950Z,38.09
2022-10-11T10:05:23.222Z,38.42
2022-10-11T10:08:08.941Z,38.09
2022-10-11T10:10:38.708Z,36.78
2022-10-11T10:13:18.206Z,36.83
2022-10-11T10:15:48.109Z,37.37
2022-10-11T10:18:22.805Z,38.04
2022-10-11T10:20:55.552Z,38.24
2022-10-11T10:23:30.005Z,38.65
2022-10-11T10:26:35.385Z,37.58
2022-10-11T10:29:17.115Z,36.51
2022-10-11T10:34:55.013Z,35.83
2022-10-11T10:37:37.912Z,35.78
2022-10-11T10:40:22.775Z,35.68
2022-10-11T10:42:51.402Z,35.93
2022-10-11T10:45:21.423Z,36.73
2022-10-11T10:48:03.815Z,37.40
2022-10-11T10:50:59.601Z,37.29
2022-10-11T10:53:37.494Z,37.79
2022-10-11T10:56:10.264Z,39.13
2022-10-11T10:59:02.727Z,38.38
2022-10-11T11:01:33.052Z,37.04
2022-10-11T11:04:06.599Z,35.28
2022-10-11T11:06:50.995Z,33.98
2022-10-11T11:09:20.140Z,32.78
2022-10-11T11:11:57.331Z,33.48
2022-10-11T11:14:44.787Z,33.81
2022-10-11T11:17:20.707Z,34.10
2022-10-11T11:20:03.099Z,35.42
2022-10-11T11:22:54.767Z,35.47
2022-10-11T11:25:53.372Z,35.39
2022-10-11T11:28:41.649Z,34.43
2022-10-11T11:31:15.789Z,34.15
2022-10-11T11:33:59.245Z,34.53
2022-10-11T11:36:41.502Z,34.95
2022-10-11T11:39:16.795Z,34.32
2022-10-11T11:42:01.198Z,34.92
2022-10-11T11:44:42.462Z,35.06
2022-10-11T11:47:26.735Z,35.71
2022-10-11T11:50:20.804Z,35.98
2022-10-11T11:52:51.651Z,37.36
2022-10-11T11:55:28.474Z,37.43
2022-10-11T11:58:17.768Z,38.16
2022-10-11T12:01:01.565Z,38.73
2022-10-11T12:03:34.435Z,39.11
2022-10-11T12:06:12.536Z,40.15
2022-10-11T12:08:42.012Z,40.62
2022-10-11T12:11:20.356Z,40.66
2022-10-11T12:13:50.832Z,41.38
2022-10-11T12:16:18.680Z,41.67
2022-10-11T12:18:57.420Z,41.95
2022-10-11T12:21:34.542Z,41.95
2022-10-11T12:24:09.744Z,41.50
2022-10-11T12:27:01.393Z,41.96
2022-10-11T12:29:49.728Z,42.10
2022-10-11T12:32:28.446Z,41.94
2022-10-11T12:35:32.288Z,41.98
2022-10-11T12:38:13.164Z,42.58
2022-10-11T12:40:42.109Z,42.54
2022-10-11T12:43:30.237Z,42.13
2022-10-11T12:45:56.836Z,42.40
2022-10-11T12:48:42.309Z,42.82
2022-10-11T12:51:28.000Z,43.25
2022-10-11T12:54:26.760Z,43.90
2022-10-11T12:57:15.980Z,44.10
2022-10-11T12:59:46.679Z,44.67
2022-10-11T13:02:40.724Z,45.37
2022-10-11T13:05:21.678Z,45.35
2022-10-11T13:07:49.384Z,46.07
2022-10-11T13:10:24.193Z,46.26
2022-10-11T13:12:52.042Z,46.58
2022-10-11T13:15:21.896Z,46.86
2022-10-11T13:17:54.207Z,47.24
2022-10-11T13:20:25.392Z,47.72
2022-10-11T13:22:54.834Z,47.85
2022-10-11T13:25:27.981Z,48.17
2022-10-11T13:27:57.741Z,48.49
2022-10-11T13:30:34.186Z,48.66
2022-10-11T13:33:05.558Z,48.76
2022-10-11T13:35:35.312Z,48.75
2022-10-11T13:38:03.446Z,49.06
2022-10-11T13:40:31.641Z,48.98
2022-10-11T13:42:58.603Z,49.18
2022-10-11T13:45:27.778Z,49.23
2022-10-11T13:47:55.341Z,49.57
2022-10-11T13:50:35.262Z,49.14
2022-10-11T13:53:23.363Z,49.55
2022-10-11T13:55:59.309Z,49.78
2022-10-11T13:58:40.489Z,50.08
2022-10-11T14:01:34.942Z,50.22
2022-10-11T14:04:08.815Z,50.51
2022-10-11T14:06:58.445Z,50.77
2022-10-11T14:09:33.698Z,51.28
2022-10-11T14:12:28.292Z,51.32
2022-10-11T14:14:54.842Z,52.02
2022-10-11T14:17:32.229Z,52.66
2022-10-11T14:20:12.593Z,52.32
2022-10-11T14:22:39.331Z,53.45
2022-10-11T14:25:06.173Z,53.52
2022-10-11T14:27:32.854Z,54.11
2022-10-11T14:30:24.085Z,53.82
2022-10-11T14:32:49.088Z,54.28
2022-10-11T14:35:19.163Z,54.62
2022-10-11T14:37:45.976Z,54.48
2022-10-11T14:40:16.764Z,54.83
2022-10-11T14:42:43.511Z,55.01
2022-10-11T14:45:10.296Z,55.04
2022-10-11T14:47:42.617Z,55.53
2022-10-11T14:50:31.445Z,56.04
2022-10-11T14:52:58.201Z,56.10
2022-10-11T14:55:25.021Z,55.92
2022-10-11T14:57:51.731Z,56.58
2022-10-11T15:00:22.493Z,56.65
2022-10-11T15:02:50.746Z,56.59
2022-10-11T15:05:17.286Z,56.57
2022-10-11T15:07:43.877Z,57.09
2022-10-11T15:10:25.581Z,57.36
2022-10-11T15:13:10.619Z,56.78
2022-10-11T15:15:40.951Z,57.60
2022-10-11T15:18:12.214Z,57.97
2022-10-11T15:20:42.604Z,58.00
2022-10-11T15:23:10.281Z,58.31
2022-10-11T15:25:38.322Z,58.37
2022-10-11T15:28:06.719Z,58.44
2022-10-11T15:30:41.088Z,58.25
2022-10-11T15:33:08.254Z,58.60
2022-10-11T15:35:34.798Z,59.15
2022-10-11T15:38:01.398Z,59.22
2022-10-11T15:40:33.610Z,59.22
2022-10-11T15:43:01.013Z,59.86
2022-10-11T15:45:28.977Z,59.88
2022-10-11T15:47:55.716Z,60.26
2022-10-11T15:50:37.466Z,60.59
2022-10-11T15:53:17.727Z,60.42
2022-10-11T15:55:50.170Z,60.81
2022-10-11T15:58:21.735Z,61.42
2022-10-11T16:00:56.460Z,61.45
2022-10-11T16:03:26.165Z,60.38
2022-10-11T16:06:04.818Z,61.84
2022-10-11T16:08:33.029Z,62.08
2022-10-11T16:10:59.675Z,61.99
2022-10-11T16:13:26.220Z,62.24
2022-10-11T16:15:53.467Z,62.66
2022-10-11T16:18:21.119Z,63.11
2022-10-11T16:20:51.066Z,63.20
2022-10-11T16:23:19.904Z,62.98
2022-10-11T16:25:56.087Z,63.44
2022-10-11T16:28:23.289Z,63.31
2022-10-11T16:30:50.088Z,63.67
2022-10-11T16:33:16.950Z,63.97
2022-10-11T16:35:43.700Z,64.30
2022-10-11T16:38:13.347Z,64.38
2022-10-11T16:40:42.647Z,65.02
2022-10-11T16:43:09.631Z,64.52
2022-10-11T16:45:36.797Z,65.17
2022-10-11T16:48:04.449Z,64.85
2022-10-11T16:50:33.416Z,64.93
2022-10-11T16:53:03.551Z,65.27
2022-10-11T16:55:30.096Z,65.38
2022-10-11T16:57:56.624Z,65.35
2022-10-11T17:00:23.276Z,65.89
2022-10-11T17:02:49.924Z,66.02
2022-10-11T17:05:17.013Z,65.85
2022-10-11T17:07:43.603Z,65.94
2022-10-11T17:10:10.275Z,65.67
2022-10-11T17:12:37.278Z,65.13
2022-10-11T17:15:05.542Z,65.43
2022-10-11T17:17:32.314Z,65.71
2022-10-11T17:19:59.008Z,66.40
2022-10-11T17:22:25.914Z,66.73
2022-10-11T17:24:52.484Z,66.62
2022-10-11T17:27:19.035Z,67.25
2022-10-11T17:29:45.900Z,67.07
2022-10-11T17:32:12.572Z,67.67
2022-10-11T17:34:39.216Z,67.82
2022-10-11T17:37:06.211Z,68.52
2022-10-11T17:39:32.982Z,68.62
2022-10-11T17:42:04.959Z,68.67
2022-10-11T17:44:33.144Z,68.61
2022-10-11T17:47:00.823Z,68.68
2022-10-11T17:49:27.434Z,69.38
2022-10-11T17:51:56.532Z,69.48
2022-10-11T17:54:24.303Z,69.94
2022-10-11T17:56:50.989Z,69.77
2022-10-11T17:59:21.226Z,69.82
2022-10-11T18:01:50.168Z,70.00
2022-10-11T18:04:19.252Z,69.97
2022-10-11T18:06:46.831Z,69.87
2022-10-11T18:09:15.654Z,69.53
2022-10-11T18:11:44.042Z,69.75
2022-10-11T18:14:12.328Z,69.90
2022-10-11T18:16:39.818Z,70.38
2022-10-11T18:19:08.785Z,70.29
2022-10-11T18:21:37.576Z,70.29
2022-10-11T18:24:07.853Z,70.63
2022-10-11T18:26:34.337Z,71.12
2022-10-11T18:29:00.883Z,71.36
2022-10-11T18:31:31.804Z,71.15
2022-10-11T18:33:58.399Z,71.66
2022-10-11T18:36:27.322Z,71.91
2022-10-11T18:39:00.137Z,71.50
2022-10-11T18:41:32.136Z,71.77
2022-10-11T18:44:01.842Z,72.23
2022-10-11T18:46:29.317Z,72.13
2022-10-11T18:48:57.409Z,72.69
2022-10-11T18:51:29.364Z,72.40
2022-10-11T18:53:58.620Z,72.08
2022-10-11T18:56:27.109Z,72.21
2022-10-11T18:58:55.576Z,72.48
2022-10-11T19:01:28.651Z,72.59
2022-10-11T19:03:57.414Z,72.63
2022-10-11T19:06:30.248Z,73.08
2022-10-11T19:09:14.955Z,72.76
2022-10-11T19:11:41.797Z,73.43
2022-10-11T19:14:11.416Z,74.06
2022-10-11T19:16:43.713Z,74.12
2022-10-11T19:19:11.467Z,74.24
2022-10-11T19:21:38.981Z,74.16
2022-10-11T19:24:05.849Z,73.94
2022-10-11T19:26:35.653Z,74.93
2022-10-11T19:29:11.379Z,74.14
2022-10-11T19:31:42.599Z,73.97
2022-10-11T19:34:10.302Z,74.45
2022-10-11T19:36:37.137Z,75.60
2022-10-11T19:39:05.319Z,75.46
2022-10-11T19:41:32.456Z,75.29
2022-10-11T19:43:59.178Z,75.72
2022-10-11T19:46:49.804Z,75.80
2022-10-11T19:49:15.814Z,75.60
2022-10-11T19:51:42.589Z,76.39
2022-10-11T19:54:12.526Z,75.58
2022-10-11T19:56:39.463Z,76.12
2022-10-11T19:59:06.491Z,76.02
2022-10-11T20:01:35.235Z,76.70
2022-10-11T20:04:05.064Z,76.13
2022-10-11T20:06:38.042Z,76.82
2022-10-11T20:09:28.374Z,76.42
2022-10-11T20:11:55.490Z,76.36
2022-10-11T20:14:25.433Z,76.41
2022-10-11T20:16:52.199Z,76.76
2022-10-11T20:19:19.357Z,77.58
2022-10-11T20:21:46.020Z,77.64
2022-10-11T20:24:15.945Z,77.17
2022-10-11T20:26:42.909Z,78.04
2022-10-11T20:29:09.657Z,77.47
2022-10-11T20:31:41.941Z,77.84
2022-10-11T20:34:10.329Z,77.40
2022-10-11T20:36:37.316Z,77.18
2022-10-11T20:39:05.264Z,77.62
2022-10-11T20:41:36.859Z,77.41
2022-10-11T20:44:04.876Z,77.27
2022-10-11T20:46:34.598Z,78.13
2022-10-11T20:49:04.008Z,77.89
2022-10-11T20:51:33.995Z,77.90
2022-10-11T20:54:02.271Z,78.64
2022-10-11T20:56:29.801Z,78.22
2022-10-11T20:58:58.205Z,79.21
2022-10-11T21:01:28.548Z,78.81
2022-10-11T21:03:57.173Z,78.10
2022-10-11T21:06:23.673Z,78.75
2022-10-11T21:08:50.186Z,78.65
2022-10-11T21:11:16.784Z,78.00
2022-10-11T21:13:43.329Z,78.50
2022-10-11T21:16:16.009Z,78.04
2022-10-11T21:18:43.057Z,77.94
2022-10-11T21:21:13.760Z,78.61
2022-10-11T21:23:41.077Z,77.57
2022-10-11T21:26:11.282Z,76.59
2022-10-11T21:28:38.358Z,76.77
2022-10-11T21:31:14.023Z,75.78
2022-10-11T21:33:42.197Z,75.57
2022-10-11T21:36:14.832Z,75.54
2022-10-11T21:38:41.753Z,75.57
2022-10-11T21:41:11.440Z,75.25
2022-10-11T21:43:38.444Z,75.26
2022-10-11T21:46:41.600Z,75.42
2022-10-11T21:49:12.336Z,75.97
2022-10-11T21:51:38.863Z,76.10
2022-10-11T21:54:05.734Z,76.31
2022-10-11T21:56:32.417Z,76.08
2022-10-11T21:58:59.058Z,75.81
2022-10-11T22:01:25.664Z,76.19
2022-10-11T22:03:55.091Z,76.20
2022-10-11T22:06:21.988Z,76.10
2022-10-11T22:08:49.914Z,76.18
2022-10-11T22:11:17.138Z,76.42
2022-10-11T22:13:43.779Z,76.39
2022-10-11T22:16:12.936Z,76.30
2022-10-11T22:18:40.149Z,76.88
2022-10-11T22:21:17.319Z,75.93
2022-10-11T22:23:46.658Z,76.18
2022-10-11T22:26:17.615Z,75.56
2022-10-11T22:28:46.473Z,75.52
2022-10-11T22:31:14.293Z,75.08
2022-10-11T22:33:42.034Z,75.89
2022-10-11T22:36:10.366Z,75.63
2022-10-11T22:38:38.607Z,75.64
2022-10-11T22:41:05.586Z,75.30
2022-10-11T22:43:32.709Z,75.16
2022-10-11T22:45:59.926Z,75.67
2022-10-11T22:48:26.575Z,75.84
2022-10-11T22:50:53.317Z,75.21
2022-10-11T22:53:20.052Z,75.00
2022-10-11T22:55:47.178Z,75.46
2022-10-11T22:58:13.966Z,75.42
2022-10-11T23:00:40.588Z,75.57
2022-10-11T23:03:07.355Z,75.90
2022-10-11T23:05:34.632Z,75.14
2022-10-11T23:08:01.340Z,75.63
2022-10-11T23:10:27.857Z,75.76
2022-10-11T23:12:54.392Z,75.86
2022-10-11T23:15:20.940Z,75.38
2022-10-11T23:17:47.529Z,75.48
2022-10-11T23:20:14.104Z,75.80
2022-10-11T23:22:40.609Z,75.29
2022-10-11T23:25:07.888Z,76.04
2022-10-11T23:27:34.555Z,76.31
2022-10-11T23:30:01.509Z,76.26
2022-10-11T23:32:28.022Z,75.78
2022-10-11T23:34:54.520Z,75.95
2022-10-11T23:37:21.037Z,76.16
2022-10-11T23:39:47.549Z,75.98
2022-10-11T23:42:14.064Z,75.85
2022-10-11T23:44:40.581Z,75.29
2022-10-11T23:47:07.109Z,75.36
2022-10-11T23:49:33.685Z,74.85
2022-10-11T23:52:00.192Z,74.95
2022-10-11T23:54:26.831Z,75.02
2022-10-11T23:56:53.365Z,74.85
2022-10-11T23:59:19.858Z,74.99
